Airfield :
LOGIN :

Register | Disclaimer

   EN    FR    IT 

 










Legend :    VFR   Marginal VFR   IFR   Intensive IFR   Very Intensive IFR
Visi :
Ceiling :
>= 8 km
>= 3000ft
5 to 8 km
1000 to 3000 ft
1500m to 5 km
500 to 1000 ft
800 to 1500m
200 to 500 ft
< 800m
< 200 ft
Symbols :   Thunderstorms  Fog  Heavy snow  Heavy precipitations  Wind > 20 kt
SIGMETs :     Misc.  Thunderstorms  Icing  Turbulence  Mountain Waves  Volcanic Ashes






- Airport Elevation : 479 ft
- IATA code : DOL


LFRG - Deauville

CURRENT METAR :
  • 050700Z AUTO 19007KT 9999 FEW048 16/14 Q1010 NOSIG

EXPIRED METARs :
  • 050630Z AUTO 18008KT CAVOK 14/13 Q1010 NOSIG
  • 050600Z AUTO 18007KT CAVOK 14/13 Q1010 TEMPO 4000 BR
  • 050530Z AUTO 18006KT CAVOK 13/13 Q1010 TEMPO 4000 BR
  • 050500Z AUTO 18004KT CAVOK 12/11 Q1011
  • 050430Z AUTO 20005KT 9000 NSC 13/12 Q1011

TAF TAF LFRG
Valid from the 05 at 06:00 until the 05 at 15:00 UTC


050500Z 0506/0515 VRB02KT 9999 SCT040
PROB30
TEMPO 0506/0507 4000 BR
BECMG 0507/0509 19012KT
TEMPO 0512/0515 19015G25KT 4000 RA
ATIS : +33 2 31 65 65 36



MET'MAP, your aeronautical weather chart ! - Copyright ORBIFLY December 2007 - Disclaimer

ORBIFLY MET'MAP TEAM :

Programming & Development : Alexandra Zaïnal
Concept & original design : Baudouin d'Aumeries
Assistance for programming : Marc-Olivier Méhu
Technical & hardware support : Manuel Goepfert

Contact : metmap@orbifly.com




SOURCES & CREDITS :

   NOAA